Time;durP1;ratioP1;P1;durP2;ratioP2;P2;SDS_P1;SDS_P2;PMS_P1;PMS_P2;Temp;Humidity;BMP_temperature;BMP_pressure;BME280_temperature;BME280_humidity;BME280_pressure;Samples;Min_cycle;Max_cycle;Signal;HPM_P1;HPM_P2
2023/09/22 00:02:20;;;;;;;0.70;0.50;;;16.50;96.50;;;16.22;92.45;96653.31;5050696;28;20473;-73
2023/09/22 00:04:47;;;;;;;0.60;0.40;;;16.50;94.90;;;16.20;92.35;96669.16;5049353;28;20450;-73
2023/09/22 00:07:14;;;;;;;1.33;0.60;;;16.50;94.70;;;16.21;92.94;96687.91;5050098;28;20496;-74
2023/09/22 00:09:42;;;;;;;0.60;0.57;;;16.50;95.00;;;16.19;92.98;96673.78;5048366;28;20461;-73
2023/09/22 00:12:09;;;;;;;0.90;0.50;;;16.40;94.90;;;16.37;92.28;96674.16;5048909;28;20804;-74
2023/09/22 00:14:38;;;;;;;0.60;0.40;;;16.50;95.10;;;16.40;90.60;96679.88;5048631;28;20546;-74
2023/09/22 00:17:06;;;;;;;0.80;0.47;;;16.50;94.20;;;16.30;89.77;96696.28;5048937;28;20451;-74
2023/09/22 00:19:35;;;;;;;1.47;0.50;;;16.50;93.30;;;16.37;89.67;96694.06;5054098;28;20464;-74
2023/09/22 00:22:03;;;;;;;0.70;0.43;;;16.50;93.40;;;16.34;90.07;96693.81;5050885;28;20481;-75
2023/09/22 00:24:30;;;;;;;0.93;0.40;;;16.60;93.70;;;16.12;90.99;96687.72;5048573;28;20517;-75
2023/09/22 00:26:59;;;;;;;0.50;0.30;;;16.50;93.60;;;16.27;89.47;96694.16;5048514;28;20450;-74
2023/09/22 00:29:26;;;;;;;0.83;0.60;;;16.50;93.30;;;16.28;90.45;96682.16;5044214;28;20500;-75
2023/09/22 00:31:55;;;;;;;1.50;0.57;;;16.50;93.50;;;16.15;88.94;96667.28;5045578;28;20533;-75
2023/09/22 00:34:22;;;;;;;0.50;0.50;;;16.50;93.30;;;16.15;88.84;96678.16;5049493;28;20473;-75
2023/09/22 00:36:52;;;;;;;0.73;0.53;;;16.50;92.90;;;16.18;90.44;96677.59;5049783;28;20450;-75
2023/09/22 00:39:19;;;;;;;0.60;0.40;;;16.40;93.40;;;16.23;90.74;96660.41;5047705;28;20447;-76
2023/09/22 00:41:47;;;;;;;0.50;0.40;;;16.40;94.10;;;16.07;88.04;96655.06;5045412;28;20480;-74
2023/09/22 00:44:16;;;;;;;0.50;0.50;;;16.40;92.60;;;16.04;88.03;96688.34;5042650;28;20447;-75
2023/09/22 00:46:43;;;;;;;0.40;0.40;;;16.30;92.40;;;15.98;88.39;96678.56;5046528;28;20932;-75
2023/09/22 00:49:11;;;;;;;0.40;0.30;;;16.30;92.60;;;15.76;89.36;96693.38;5047759;28;20447;-75
2023/09/22 00:51:38;;;;;;;3.47;0.50;;;16.40;92.40;;;15.65;89.00;96680.91;5049685;28;20470;-73
2023/09/22 00:54:07;;;;;;;1.17;0.43;;;16.30;92.10;;;15.53;91.77;96690.22;5048492;28;20459;-75
2023/09/22 00:56:34;;;;;;;0.70;0.53;;;16.20;92.60;;;15.40;91.42;96690.88;5043049;28;20488;-74
2023/09/22 00:59:03;;;;;;;0.70;0.50;;;16.10;92.60;;;15.33;93.60;96702.06;5048317;28;20541;-74
2023/09/22 01:01:31;;;;;;;1.17;0.57;;;16.00;93.60;;;15.21;95.19;96699.63;5065043;28;20563;-75
2023/09/22 01:03:58;;;;;;;0.90;0.80;;;15.80;94.20;;;15.18;96.65;96705.63;5048495;28;20474;-74
2023/09/22 01:06:26;;;;;;;0.50;0.40;;;15.80;95.50;;;15.09;98.35;96702.66;5043488;28;20465;-73
2023/09/22 01:08:53;;;;;;;1.17;0.60;;;15.70;96.10;;;15.14;99.09;96710.81;5061289;28;20539;-75
2023/09/22 01:11:21;;;;;;;0.40;0.30;;;15.70;97.40;;;15.05;97.86;96711.66;5048332;28;20456;-74
2023/09/22 01:13:48;;;;;;;1.90;0.47;;;15.70;96.10;;;15.10;98.64;96714.38;5047520;28;20533;-75
2023/09/22 01:16:15;;;;;;;0.57;0.40;;;15.70;96.40;;;14.94;98.14;96695.38;5049563;28;20455;-75
2023/09/22 01:18:46;;;;;;;0.70;0.60;;;15.60;96.20;;;14.78;99.44;96701.91;5048269;28;21269;-75
2023/09/22 01:21:14;;;;;;;0.70;0.50;;;15.50;96.40;;;14.77;100.00;96694.84;5049256;28;20483;-75
2023/09/22 01:23:43;;;;;;;0.90;0.50;;;15.40;97.00;;;14.68;100.00;96681.81;5040908;28;20490;-75
2023/09/22 01:26:10;;;;;;;1.20;0.60;;;15.40;97.50;;;14.77;100.00;96684.81;5048402;28;20530;-75
2023/09/22 01:28:37;;;;;;;1.40;0.50;;;15.40;97.70;;;14.57;100.00;96672.03;5038178;28;20589;-76
2023/09/22 01:31:06;;;;;;;1.73;0.67;;;15.30;98.30;;;14.55;100.00;96664.16;5048317;28;20453;-75
2023/09/22 01:33:34;;;;;;;1.40;0.63;;;15.20;98.90;;;14.54;100.00;96659.81;5045755;28;20503;-75
2023/09/22 01:36:01;;;;;;;0.73;0.73;;;15.20;99.50;;;14.63;100.00;96679.06;5039978;28;20987;-75
2023/09/22 01:38:29;;;;;;;1.30;1.20;;;15.20;99.90;;;14.54;100.00;96669.88;5046817;28;20469;-76
2023/09/22 01:40:58;;;;;;;0.83;0.50;;;15.20;99.90;;;14.57;100.00;96681.00;5044368;28;20469;-76
2023/09/22 01:43:25;;;;;;;1.13;0.60;;;15.10;99.90;;;14.52;100.00;96678.28;5046184;28;20993;-75
2023/09/22 01:45:53;;;;;;;1.30;0.90;;;15.20;99.90;;;14.52;100.00;96700.03;5048360;28;20448;-75
2023/09/22 01:48:20;;;;;;;0.63;0.60;;;15.10;99.90;;;14.81;100.00;96693.22;5046259;28;20795;-74
2023/09/22 01:50:47;;;;;;;1.27;0.50;;;15.30;99.90;;;14.71;100.00;96703.03;5047991;28;20485;-74
2023/09/22 01:53:15;;;;;;;0.63;0.50;;;15.20;99.90;;;14.72;100.00;96712.81;5046455;28;20450;-74
2023/09/22 01:55:43;;;;;;;2.53;0.50;;;15.30;99.90;;;14.63;100.00;96698.09;5045572;28;20545;-74
2023/09/22 01:58:11;;;;;;;1.70;0.53;;;15.20;99.90;;;14.70;100.00;96709.53;5046150;28;20516;-75
2023/09/22 02:00:40;;;;;;;0.83;0.63;;;15.30;99.90;;;14.71;100.00;96703.03;5044720;28;20458;-74
2023/09/22 02:03:08;;;;;;;1.07;0.60;;;15.30;99.90;;;14.62;100.00;96698.41;5045442;28;20475;-74
2023/09/22 02:05:35;;;;;;;0.53;0.43;;;15.20;99.90;;;14.68;100.00;96714.44;5047469;28;20462;-75
2023/09/22 02:08:04;;;;;;;0.50;0.50;;;15.20;99.90;;;14.69;100.00;96710.63;5044026;28;20441;-74
2023/09/22 02:10:31;;;;;;;1.17;0.70;;;15.30;99.90;;;14.69;100.00;96710.63;5028561;28;20465;-74
2023/09/22 02:12:58;;;;;;;0.60;0.50;;;15.20;99.90;;;14.59;100.00;96705.19;5043920;28;20456;-73
2023/09/22 02:15:27;;;;;;;0.57;0.57;;;15.20;99.90;;;14.60;100.00;96712.25;5048053;28;20777;-73
2023/09/22 02:17:54;;;;;;;0.60;0.60;;;15.20;99.90;;;14.64;100.00;96726.94;5045415;28;20463;-75
2023/09/22 02:20:23;;;;;;;1.37;0.60;;;15.20;99.90;;;14.54;100.00;96721.50;5045987;28;20511;-74
2023/09/22 02:22:53;;;;;;;1.50;0.73;;;15.20;99.90;;;14.69;100.00;96726.94;5045611;28;20475;-74
2023/09/22 02:25:21;;;;;;;1.50;0.60;;;15.20;99.90;;;14.67;100.00;96718.25;5044813;28;20507;-74
2023/09/22 02:27:50;;;;;;;0.60;0.50;;;15.20;99.90;;;14.68;100.00;96713.59;5044628;28;20465;-73
2023/09/22 02:30:18;;;;;;;1.07;0.60;;;15.20;99.90;;;14.57;100.00;96688.34;5039465;28;20461;-73
2023/09/22 02:32:50;;;;;;;0.40;0.40;;;15.20;99.90;;;14.62;100.00;96698.41;5042537;28;20454;-74
2023/09/22 02:35:19;;;;;;;1.10;0.50;;;15.20;99.90;;;14.61;100.00;96711.16;5040372;28;20470;-74
2023/09/22 02:37:47;;;;;;;0.70;0.60;;;15.20;99.90;;;14.40;100.00;96680.47;5043647;28;20485;-74
2023/09/22 02:40:14;;;;;;;1.33;0.73;;;15.20;99.90;;;14.64;100.00;96712.53;5044401;28;20853;-76
2023/09/22 02:42:43;;;;;;;0.70;0.60;;;15.20;99.90;;;14.59;100.00;96706.00;5046986;28;20464;-74
2023/09/22 02:45:11;;;;;;;1.47;0.53;;;15.20;99.90;;;14.46;100.00;96703.84;5047635;28;20539;-75
2023/09/22 02:47:38;;;;;;;1.30;0.77;;;15.10;99.90;;;14.50;100.00;96706.84;5044492;28;20459;-75
2023/09/22 02:50:10;;;;;;;1.03;0.60;;;15.10;99.90;;;14.48;100.00;96709.81;5048350;28;20454;-74
2023/09/22 02:52:38;;;;;;;0.60;0.60;;;15.10;99.90;;;14.51;100.00;96713.91;5045944;28;20453;-74
2023/09/22 02:55:09;;;;;;;2.40;0.87;;;15.10;99.90;;;14.49;100.00;96702.50;5047481;28;20532;-75
2023/09/22 02:57:36;;;;;;;0.70;0.60;;;15.20;99.90;;;14.35;100.00;96716.63;5047771;28;20495;-76
2023/09/22 03:00:11;;;;;;;0.83;0.70;;;15.10;99.90;;;14.46;100.00;96720.16;5042310;28;20943;-75
2023/09/22 03:02:39;;;;;;;1.57;0.87;;;15.10;99.90;;;14.30;100.00;96689.44;5047679;28;20452;-76
2023/09/22 03:05:10;;;;;;;1.40;1.00;;;15.10;99.90;;;14.43;100.00;96713.34;5046159;28;20445;-76
2023/09/22 03:07:38;;;;;;;2.40;0.70;;;15.10;99.90;;;14.51;100.00;96735.66;5047082;28;20461;-76
2023/09/22 03:10:06;;;;;;;0.80;0.80;;;15.10;99.90;;;14.50;100.00;96736.72;5054481;28;21000;-77
2023/09/22 03:12:35;;;;;;;1.13;0.60;;;15.10;99.90;;;14.36;100.00;96728.28;5045840;28;20453;-76
2023/09/22 03:15:04;;;;;;;1.47;0.60;;;15.10;99.90;;;14.47;100.00;96723.66;5047516;28;20790;-76
2023/09/22 03:17:31;;;;;;;0.60;0.60;;;15.10;99.90;;;14.47;100.00;96716.34;5049303;28;20541;-75
2023/09/22 03:19:59;;;;;;;2.30;0.70;;;15.10;99.90;;;14.37;100.00;96709.00;5048779;28;20468;-74
2023/09/22 03:22:27;;;;;;;0.80;0.80;;;15.10;99.90;;;14.33;100.00;96724.25;5049912;28;20527;-75
2023/09/22 03:24:55;;;;;;;1.03;0.70;;;15.00;99.90;;;14.30;100.00;96703.84;5051058;28;21150;-75
2023/09/22 03:27:23;;;;;;;0.60;0.60;;;15.00;99.90;;;14.36;100.00;96701.97;5048823;28;20446;-76
2023/09/22 03:29:51;;;;;;;1.20;0.80;;;15.00;99.90;;;14.48;100.00;96709.00;5049722;28;20488;-76
2023/09/22 03:32:18;;;;;;;1.70;0.93;;;15.00;99.90;;;14.32;100.00;96700.84;5050015;28;20479;-76
2023/09/22 03:34:48;;;;;;;1.17;1.07;;;15.00;99.90;;;14.35;100.00;96704.94;5050667;28;20474;-75
2023/09/22 03:37:15;;;;;;;0.93;0.77;;;15.00;99.90;;;14.43;100.00;96688.91;5051153;28;20444;-75
2023/09/22 03:39:44;;;;;;;0.80;0.60;;;15.00;99.90;;;14.32;100.00;96668.25;5047005;28;20537;-76
2023/09/22 03:42:13;;;;;;;0.80;0.80;;;15.00;99.90;;;14.33;100.00;96661.75;5050046;28;20449;-76
2023/09/22 03:44:41;;;;;;;0.87;0.87;;;15.00;99.90;;;14.39;100.00;96668.81;5048760;28;20473;-77
2023/09/22 03:47:09;;;;;;;1.47;0.70;;;15.00;99.90;;;14.40;100.00;96681.28;5049660;28;20450;-75
2023/09/22 03:49:36;;;;;;;1.60;0.70;;;15.00;99.70;;;14.38;100.00;96671.78;5062818;28;20443;-75
2023/09/22 03:52:04;;;;;;;0.90;0.90;;;15.00;99.30;;;14.27;100.00;96681.84;5049076;28;20455;-75
2023/09/22 03:54:31;;;;;;;2.40;0.87;;;15.00;98.60;;;14.20;100.00;96689.47;5045791;28;20783;-76
2023/09/22 03:57:02;;;;;;;1.73;1.00;;;15.00;98.20;;;14.39;100.00;96690.53;5049111;28;20954;-75
2023/09/22 03:59:29;;;;;;;1.80;1.10;;;15.00;98.30;;;14.39;100.00;96693.25;5046366;28;20491;-75
2023/09/22 04:01:56;;;;;;;0.93;0.80;;;15.00;97.40;;;14.28;100.00;96669.88;5047837;28;21077;-75
2023/09/22 04:04:25;;;;;;;1.47;0.97;;;15.00;97.60;;;14.41;100.00;96671.25;5051758;28;20558;-74
2023/09/22 04:06:52;;;;;;;1.57;1.20;;;15.00;98.10;;;14.29;100.00;96691.38;5048690;28;20523;-77
2023/09/22 04:09:19;;;;;;;1.80;1.10;;;15.00;97.80;;;14.23;100.00;96680.75;5045463;28;20853;-78
2023/09/22 04:11:47;;;;;;;1.83;1.50;;;14.90;98.10;;;14.26;100.00;96685.66;5047754;28;20555;-75
2023/09/22 04:14:16;;;;;;;0.87;0.87;;;14.90;98.20;;;14.28;100.00;96683.47;5048521;28;20452;-76
2023/09/22 04:16:44;;;;;;;1.00;0.70;;;14.90;98.40;;;14.32;100.00;96695.41;5049021;28;20537;-77
2023/09/22 04:19:11;;;;;;;1.10;1.00;;;15.00;98.20;;;13.85;100.00;96627.50;5046227;28;20640;-76
2023/09/22 04:21:43;;;;;;;0.97;0.87;;;14.90;98.00;;;14.35;100.00;96704.94;5048733;28;20461;-75
2023/09/22 04:24:11;;;;;;;2.27;0.93;;;14.90;98.50;;;14.24;100.00;96704.91;5044714;28;20465;-75
2023/09/22 04:26:42;;;;;;;1.47;0.80;;;14.80;98.70;;;14.31;100.00;96710.09;5048505;28;20457;-75
2023/09/22 04:29:10;;;;;;;1.43;0.70;;;14.90;97.80;;;14.36;99.23;96714.72;5044848;28;20593;-76
2023/09/22 04:31:42;;;;;;;1.60;1.50;;;15.00;96.80;;;14.29;100.00;96702.22;5029280;28;20482;-77
2023/09/22 04:34:10;;;;;;;1.17;0.97;;;15.00;97.00;;;14.27;100.00;96720.69;5046075;28;20510;-77
2023/09/22 04:36:37;;;;;;;1.20;0.80;;;14.90;97.40;;;14.36;100.00;96729.13;5030043;28;20451;-76
2023/09/22 04:39:08;;;;;;;1.27;0.70;;;14.90;97.30;;;14.39;99.79;96742.16;5046146;28;20453;-76
2023/09/22 04:41:35;;;;;;;1.07;0.90;;;15.00;96.70;;;14.42;98.77;96760.63;5048247;28;20445;-76
2023/09/22 04:44:05;;;;;;;0.70;0.70;;;15.00;96.40;;;14.44;98.94;96763.88;5046732;28;20466;-75
2023/09/22 04:46:32;;;;;;;2.10;0.70;;;15.00;96.40;;;14.43;99.10;96766.91;5050697;28;20462;-75
2023/09/22 04:49:01;;;;;;;0.70;0.70;;;15.00;96.50;;;14.30;99.13;96757.34;5043368;28;20449;-76
2023/09/22 04:51:29;;;;;;;7.57;1.87;;;15.00;96.00;;;14.55;100.00;96785.63;5040797;28;20515;-75
2023/09/22 04:53:56;;;;;;;7.53;2.57;;;15.10;97.80;;;15.14;100.00;96781.53;5047517;28;20525;-77
2023/09/22 04:56:24;;;;;;;9.37;4.97;;;15.40;99.90;;;15.78;95.76;96772.09;5047589;28;20540;-77
2023/09/22 04:58:53;;;;;;;7.00;4.23;;;16.20;97.10;;;16.34;96.34;96775.56;5046108;28;20475;-78
2023/09/22 05:01:23;;;;;;;4.63;3.53;;;16.50;96.40;;;16.10;93.75;96781.75;5041809;28;20500;-77
2023/09/22 05:03:51;;;;;;;2.90;2.17;;;16.60;93.10;;;16.12;93.80;96791.25;5044448;28;20493;-76
2023/09/22 05:06:20;;;;;;;2.60;2.17;;;16.60;93.70;;;15.85;92.60;96797.91;5046291;28;20461;-76
2023/09/22 05:08:47;;;;;;;1.97;1.20;;;16.50;93.00;;;16.05;91.03;96793.47;5044258;28;20454;-83
2023/09/22 05:11:14;;;;;;;2.37;1.50;;;16.70;93.00;;;15.43;94.02;96786.34;5043685;28;20939;-75
2023/09/22 05:13:44;;;;;;;1.30;1.20;;;16.30;93.10;;;15.11;98.58;96808.47;5045237;28;20495;-74
2023/09/22 05:16:13;;;;;;;1.87;1.53;;;15.80;95.00;;;15.09;98.31;96799.75;5058954;28;20456;-76
2023/09/22 05:18:40;;;;;;;5.37;4.20;;;15.70;95.60;;;15.01;98.56;96782.91;5043111;28;20728;-77
2023/09/22 05:21:09;;;;;;;2.03;1.70;;;15.70;95.90;;;14.76;100.00;96785.66;5042859;28;20528;-75
2023/09/22 05:23:38;;;;;;;1.87;1.50;;;15.50;96.90;;;14.83;100.00;96773.41;5044713;28;20452;-77
2023/09/22 05:26:07;;;;;;;2.33;1.20;;;15.40;97.40;;;14.67;100.00;96767.16;5045522;28;20557;-77
2023/09/22 05:28:34;;;;;;;2.10;1.60;;;15.40;97.50;;;14.89;100.00;96778.88;5049027;28;20466;-77
2023/09/22 05:31:03;;;;;;;1.80;1.70;;;15.40;98.40;;;14.66;100.00;96767.41;5042271;28;20541;-77
2023/09/22 05:33:31;;;;;;;8.10;2.17;;;15.30;97.50;;;14.59;100.00;96768.53;5043749;28;20583;-78
2023/09/22 05:35:59;;;;;;;2.30;2.10;;;15.20;98.90;;;14.62;100.00;96756.28;5044039;28;20960;-82
2023/09/22 05:38:26;;;;;;;2.37;1.80;;;15.20;99.10;;;14.60;100.00;96742.16;5040363;28;20453;-80
2023/09/22 05:40:55;;;;;;;3.43;2.00;;;15.30;98.40;;;14.49;100.00;96765.00;5045559;28;20992;-77
2023/09/22 05:43:23;;;;;;;2.30;2.10;;;15.20;98.40;;;14.38;100.00;96764.97;5044497;28;20961;-82
2023/09/22 05:45:54;;;;;;;2.50;2.30;;;15.10;98.00;;;14.23;100.00;96735.88;5043491;28;20481;-82
2023/09/22 05:48:22;;;;;;;1.73;1.60;;;15.10;99.30;;;14.41;100.00;96748.13;5042756;28;20538;-82
2023/09/22 05:50:57;;;;;;;1.83;1.50;;;15.10;98.50;;;14.39;100.00;96739.44;5044939;28;21261;-80
2023/09/22 05:53:25;;;;;;;1.40;1.20;;;15.10;96.70;;;14.60;99.64;96780.19;5044122;28;20475;-82
2023/09/22 05:56:06;;;;;;;2.00;1.23;;;15.20;96.70;;;14.54;100.00;96784.00;5049322;28;20466;-83
2023/09/22 05:58:33;;;;;;;1.30;1.20;;;15.20;97.00;;;14.50;100.00;96788.38;5048789;28;20465;-83
2023/09/22 06:01:08;;;;;;;3.00;2.30;;;15.10;97.00;;;14.38;100.00;96769.59;5044676;28;20918;-81
2023/09/22 06:03:38;;;;;;;3.47;1.53;;;15.10;97.40;;;14.59;100.00;96797.59;5042195;28;20503;-82
2023/09/22 06:06:09;;;;;;;2.33;1.70;;;15.10;97.20;;;14.53;99.71;96801.41;5047122;28;20523;-80
2023/09/22 06:08:37;;;;;;;1.80;1.43;;;15.20;96.60;;;14.51;99.79;96811.75;5043549;28;20544;-81
2023/09/22 06:11:06;;;;;;;1.80;1.70;;;15.10;96.50;;;14.51;100.00;96809.03;5044268;28;20458;-82
2023/09/22 06:13:34;;;;;;;1.80;1.50;;;15.20;96.90;;;14.41;100.00;96824.22;5045665;28;20477;-82
2023/09/22 06:16:02;;;;;;;1.83;1.40;;;15.10;96.80;;;14.57;100.00;96821.50;5047276;28;20454;-82
2023/09/22 06:18:30;;;;;;;4.53;1.23;;;15.20;97.40;;;14.62;100.00;96837.81;5044958;28;20540;-82
2023/09/22 06:21:00;;;;;;;1.40;1.30;;;15.20;96.80;;;14.59;100.00;96841.06;5039257;28;20557;-81
2023/09/22 06:23:29;;;;;;;2.20;1.40;;;15.20;97.60;;;14.50;100.00;96832.66;5045837;28;20453;-80
2023/09/22 06:26:04;;;;;;;3.13;1.30;;;15.20;97.00;;;14.62;100.00;96845.97;5045358;28;20476;-82
2023/09/22 06:28:33;;;;;;;2.70;1.57;;;15.20;97.10;;;14.67;100.00;96851.44;5039753;28;20464;-81
2023/09/22 06:31:02;;;;;;;2.60;1.60;;;15.30;97.70;;;14.73;100.00;96863.97;5046781;28;20453;-81
2023/09/22 06:33:30;;;;;;;1.83;1.40;;;15.30;97.00;;;14.68;100.00;96863.94;5050867;28;20457;-83
2023/09/22 06:36:00;;;;;;;3.40;1.50;;;15.30;97.20;;;14.67;100.00;96864.19;5041540;28;20496;-79
2023/09/22 06:38:29;;;;;;;1.80;1.50;;;15.30;97.60;;;14.52;100.00;96840.53;5042874;28;20575;-79
2023/09/22 06:40:56;;;;;;;3.23;1.43;;;15.30;97.30;;;14.76;99.92;96861.78;5040989;28;20538;-80
2023/09/22 06:43:24;;;;;;;2.07;1.37;;;15.40;96.80;;;14.76;98.80;96869.94;5044521;28;20471;-81
2023/09/22 06:45:58;;;;;;;2.00;1.23;;;15.40;95.80;;;14.89;99.47;96877.56;5043736;28;21194;-80
2023/09/22 06:48:26;;;;;;;2.20;1.50;;;15.40;96.60;;;14.79;99.93;96861.25;5042507;28;20493;-80
2023/09/22 06:50:57;;;;;;;2.10;1.53;;;15.40;96.60;;;14.82;100.00;96885.19;5045085;28;20449;-80
2023/09/22 06:53:26;;;;;;;6.70;1.60;;;15.40;96.50;;;14.77;100.00;96886.00;5037362;28;20575;-81
2023/09/22 06:56:08;;;;;;;1.60;1.50;;;15.40;96.40;;;14.80;99.96;96868.34;5040684;28;21039;-80
2023/09/22 06:58:36;;;;;;;1.93;1.60;;;15.50;96.60;;;14.99;98.86;96887.63;5042071;28;20448;-80
2023/09/22 07:01:12;;;;;;;1.83;1.20;;;15.50;96.30;;;15.00;98.41;96894.69;5043915;28;20562;-80
2023/09/22 07:03:41;;;;;;;1.37;1.23;;;15.60;96.00;;;14.77;97.28;96877.00;5044916;28;20503;-81
2023/09/22 07:06:10;;;;;;;1.70;1.53;;;15.60;94.60;;;14.77;98.46;96886.00;5047895;28;20468;-81
2023/09/22 07:08:37;;;;;;;1.83;0.97;;;15.50;95.20;;;14.96;97.40;96891.72;5040918;28;20438;-80
2023/09/22 07:11:07;;;;;;;2.00;1.03;;;15.60;95.10;;;15.04;96.60;96890.34;5049568;28;20442;-80
2023/09/22 07:13:35;;;;;;;2.70;1.63;;;15.60;95.00;;;14.92;97.13;96906.13;5045774;28;20464;-80
2023/09/22 07:16:02;;;;;;;1.57;1.47;;;15.60;94.80;;;14.67;95.89;96847.88;5044995;28;20465;-80
2023/09/22 07:18:31;;;;;;;1.50;1.40;;;15.70;94.80;;;15.08;98.27;96923.25;5064421;28;20841;-81
2023/09/22 07:21:00;;;;;;;5.90;4.57;;;15.60;95.50;;;15.12;96.18;96932.53;5045236;28;21114;-80
2023/09/22 07:23:27;;;;;;;3.00;2.53;;;15.70;94.90;;;15.28;94.62;96936.03;5039877;28;20576;-81
2023/09/22 07:26:02;;;;;;;1.60;1.50;;;15.80;94.20;;;15.17;94.64;96948.84;5047110;28;20501;-80
2023/09/22 07:28:31;;;;;;;4.60;1.87;;;15.80;93.90;;;15.29;94.42;96943.94;5046722;28;20812;-81
2023/09/22 07:30:59;;;;;;;3.33;1.57;;;15.80;94.00;;;15.42;93.30;96939.06;5040407;28;21043;-81
2023/09/22 07:33:30;;;;;;;3.43;1.30;;;15.90;93.60;;;15.10;94.73;96926.53;5048963;28;20452;-80
2023/09/22 07:36:00;;;;;;;1.87;1.37;;;15.90;93.70;;;15.28;94.49;96928.72;5057469;28;20494;-79
2023/09/22 07:38:29;;;;;;;3.87;1.83;;;15.90;93.90;;;15.53;93.22;96940.66;5058399;28;20462;-80
2023/09/22 07:40:56;;;;;;;2.80;1.30;;;16.10;93.40;;;15.66;93.50;96941.19;5064508;28;20459;-79
2023/09/22 07:43:28;;;;;;;2.60;1.30;;;16.20;93.60;;;15.02;93.51;96887.09;5058812;28;20455;-78
2023/09/22 07:45:57;;;;;;;2.10;1.20;;;16.10;93.10;;;15.27;93.90;96950.75;5067441;28;20473;-79
2023/09/22 07:48:24;;;;;;;2.10;1.30;;;16.10;93.00;;;15.32;92.96;96963.53;5064318;28;20491;-79
2023/09/22 07:50:52;;;;;;;2.13;1.20;;;16.00;92.80;;;15.38;93.81;96976.03;5072590;28;20511;-79
2023/09/22 07:53:23;;;;;;;1.80;1.17;;;16.00;93.30;;;15.23;92.91;96982.31;5068186;28;20536;-80
2023/09/22 07:55:55;;;;;;;1.97;1.77;;;15.90;92.60;;;15.34;92.86;96980.41;5048907;28;20458;-78
2023/09/22 07:58:23;;;;;;;3.83;2.03;;;15.90;93.00;;;15.32;93.89;96971.69;5045330;28;20469;-76
2023/09/22 08:00:51;;;;;;;2.83;1.80;;;15.90;93.30;;;15.52;93.36;96984.50;5046539;28;20465;-77
2023/09/22 08:03:21;;;;;;;2.00;1.70;;;16.00;93.40;;;15.68;90.53;96977.13;5047215;28;20439;-76
2023/09/22 08:05:49;;;;;;;4.70;2.10;;;16.10;92.70;;;15.53;89.75;96980.69;5044485;28;20474;-76
2023/09/22 08:08:18;;;;;;;1.80;1.70;;;16.10;91.90;;;15.56;90.10;96989.13;5046128;28;20607;-75
2023/09/22 08:10:46;;;;;;;3.30;2.53;;;16.10;92.10;;;15.42;90.21;96982.59;5045861;28;20537;-75
2023/09/22 08:13:15;;;;;;;5.53;4.93;;;16.10;92.10;;;15.43;90.19;96973.34;5038671;28;20462;-76
2023/09/22 08:15:42;;;;;;;3.30;3.00;;;16.00;92.10;;;15.48;89.97;96948.03;5049626;28;20651;-77
2023/09/22 08:18:10;;;;;;;4.57;2.67;;;16.20;92.00;;;15.76;89.32;96965.69;5048227;28;21029;-76
2023/09/22 08:20:37;;;;;;;5.00;2.70;;;16.30;91.90;;;16.02;88.74;96962.94;5043061;28;20446;-76
2023/09/22 08:23:06;;;;;;;2.00;1.90;;;16.50;92.10;;;15.93;89.21;96959.97;5046235;28;20460;-77
2023/09/22 08:25:38;;;;;;;3.30;2.33;;;16.50;92.00;;;15.74;90.02;96951.53;5049196;28;20488;-77
2023/09/22 08:28:07;;;;;;;2.60;2.03;;;16.50;91.90;;;15.57;91.19;96968.97;5047069;28;20469;-77
2023/09/22 08:30:35;;;;;;;2.90;1.90;;;16.30;92.00;;;15.86;90.43;96962.13;5045421;28;20469;-76
2023/09/22 08:33:02;;;;;;;2.40;1.70;;;16.40;92.10;;;16.14;88.87;96960.69;5046193;28;20547;-76
2023/09/22 08:35:30;;;;;;;1.87;1.77;;;16.60;92.10;;;15.77;89.55;96953.69;5045491;28;20469;-76
2023/09/22 08:38:00;;;;;;;1.97;1.80;;;16.50;91.70;;;16.07;89.12;96959.34;5042702;28;20523;-76
2023/09/22 08:40:28;;;;;;;2.30;2.00;;;16.60;91.80;;;16.02;89.78;96935.69;5050007;28;20452;-76
2023/09/22 08:42:57;;;;;;;2.70;2.43;;;16.70;91.90;;;16.29;87.15;96956.28;5046841;28;20545;-76
2023/09/22 08:45:26;;;;;;;2.27;2.07;;;16.90;91.50;;;16.25;87.12;96960.66;5042473;28;20556;-77
2023/09/22 08:47:53;;;;;;;4.43;1.93;;;16.90;91.40;;;16.33;86.30;96956.56;5045490;28;20466;-75
2023/09/22 08:50:21;;;;;;;3.87;2.57;;;17.00;91.10;;;16.08;87.95;96970.00;5043354;28;20454;-76
2023/09/22 08:52:51;;;;;;;2.13;2.00;;;16.90;91.20;;;15.94;88.98;96958.03;5041708;28;20455;-77
2023/09/22 08:55:23;;;;;;;4.33;2.37;;;16.70;91.40;;;15.89;89.17;96947.13;5048947;28;20446;-76
2023/09/22 08:57:53;;;;;;;3.23;2.90;;;16.60;91.50;;;15.64;90.29;96902.53;5045810;28;20461;-76
2023/09/22 09:00:26;;;;;;;2.20;2.03;;;16.50;91.70;;;16.10;89.19;96942.47;5045310;28;20459;-76
2023/09/22 09:03:00;;;;;;;1.90;1.80;;;16.60;91.80;;;16.02;88.89;96946.59;5051127;28;22160;-77
2023/09/22 09:05:29;;;;;;;2.50;2.10;;;16.70;91.70;;;16.11;87.89;96939.47;5050548;28;20485;-76
2023/09/22 09:08:11;;;;;;;2.23;2.07;;;16.60;91.50;;;16.26;86.03;96941.31;5032058;28;20510;-75
2023/09/22 09:10:39;;;;;;;3.40;2.00;;;16.70;91.30;;;16.45;86.54;96948.03;5051084;28;20785;-78
2023/09/22 09:13:08;;;;;;;2.17;2.03;;;16.90;91.50;;;16.07;85.62;96954.75;5050878;28;20542;-76
2023/09/22 09:15:45;;;;;;;1.87;1.77;;;16.80;90.80;;;16.31;85.53;96970.47;5050361;28;20482;-75
2023/09/22 09:18:16;;;;;;;4.50;2.13;;;17.00;90.90;;;16.25;86.72;96968.84;5052244;28;20542;-78
2023/09/22 09:20:45;;;;;;;2.70;2.50;;;16.90;90.90;;;16.19;86.54;96961.78;5050513;28;20450;-75
2023/09/22 09:23:17;;;;;;;2.33;2.13;;;16.90;90.90;;;16.23;86.79;96968.31;5053667;28;20456;-76
2023/09/22 09:25:47;;;;;;;2.40;2.20;;;16.90;91.10;;;16.18;86.50;96957.44;5049468;28;20496;-76
2023/09/22 09:28:18;;;;;;;2.70;1.97;;;16.80;91.10;;;16.19;85.63;96973.50;5048933;28;21061;-77
2023/09/22 09:30:51;;;;;;;2.67;2.47;;;16.80;90.90;;;16.09;87.33;96984.44;5049520;28;20497;-75
2023/09/22 09:33:27;;;;;;;2.50;2.30;;;16.70;91.10;;;16.26;86.83;96984.09;5053426;28;20437;-75
2023/09/22 09:35:57;;;;;;;2.83;2.20;;;16.80;91.20;;;16.45;86.46;97000.66;5054145;28;20454;-75
2023/09/22 09:38:27;;;;;;;3.10;2.80;;;16.80;91.20;;;16.16;85.73;97000.50;5052354;28;20451;-74
2023/09/22 09:40:56;;;;;;;3.37;3.07;;;16.70;91.00;;;16.14;86.20;97001.56;5051124;28;20460;-75
2023/09/22 09:43:25;;;;;;;2.73;2.53;;;16.60;91.10;;;15.76;87.07;97009.25;5051015;28;20483;-76
2023/09/22 09:45:56;;;;;;;2.30;2.00;;;16.50;90.80;;;16.02;86.44;97005.69;5051661;28;20467;-74
2023/09/22 09:48:28;;;;;;;3.77;2.47;;;16.50;91.00;;;15.98;85.64;96992.63;5047273;28;20502;-77
2023/09/22 09:50:59;;;;;;;2.87;2.60;;;16.40;90.80;;;16.13;85.08;97002.66;5048702;28;20458;-75
2023/09/22 09:53:38;;;;;;;2.53;2.33;;;16.40;91.10;;;16.11;84.68;96987.69;5052848;28;20468;-76
2023/09/22 09:56:07;;;;;;;2.37;1.87;;;16.50;90.90;;;16.08;83.83;96989.06;5051291;28;20830;-74
2023/09/22 09:58:38;;;;;;;2.43;2.23;;;16.50;90.60;;;16.01;85.76;96996.72;5051312;28;20449;-74
2023/09/22 10:01:07;;;;;;;2.30;2.10;;;16.40;90.90;;;16.18;84.74;96977.31;5051124;28;20489;-76
2023/09/22 10:03:39;;;;;;;2.53;2.33;;;16.50;90.90;;;16.02;86.10;96959.38;5049008;28;20476;-76
2023/09/22 10:06:13;;;;;;;3.73;2.30;;;16.40;91.00;;;16.14;85.99;96957.16;5054661;28;20472;-77
2023/09/22 10:08:41;;;;;;;5.00;2.30;;;16.40;91.20;;;16.02;86.74;96968.38;5063910;28;20562;-77
2023/09/22 10:11:12;;;;;;;4.33;1.80;;;16.40;91.20;;;16.00;86.69;96976.03;5051583;28;20457;-77
2023/09/22 10:13:43;;;;;;;3.93;2.03;;;16.40;91.20;;;15.99;87.18;96985.25;5049963;28;20461;-77
2023/09/22 10:16:11;;;;;;;2.07;1.97;;;16.30;91.40;;;15.82;89.13;96989.06;5044127;28;21024;-78
2023/09/22 10:18:49;;;;;;;3.30;1.73;;;16.20;91.80;;;15.93;88.86;96991.81;5044324;28;20458;-78
2023/09/22 10:21:39;;;;;;;2.30;2.00;;;16.20;92.00;;;15.90;88.35;96982.28;5051426;28;20484;-77
2023/09/22 10:24:25;;;;;;;2.43;1.70;;;16.30;91.80;;;16.13;87.46;96994.50;5043566;28;20510;-76